Time,TemperatureF,DewpointF,PressureIn,WindDirection,WindDirectionDegrees,WindSpeedMPH,WindSpeedGustMPH,Humidity,HourlyPrecipIn,Conditions,Clouds,dailyrainin,SolarRadiationWatts/m^2,SoftwareType,DateUTC
2013-03-04 04:00:00,22.0,17.0,29.88,West,279,10.0,-999.0,83,-99.99,,,-99.99,0.120000,,2013-03-04 09:00:00,
2013-03-04 04:52:00,22.0,17.0,29.88,West,279,10.0,-999.0,83,-99.99,,,-99.99,0.120000,,2013-03-04 09:52:00,
2013-03-04 05:00:00,21.0,16.0,29.90,West,279,9.0,-999.0,82,-99.99,,,-99.99,0.130000,,2013-03-04 10:00:00,
2013-03-04 05:52:00,21.0,16.0,29.90,West,279,9.0,-999.0,82,-99.99,,,-99.99,0.130000,,2013-03-04 10:52:00,
2013-03-04 06:00:00,21.0,16.0,29.92,West,280,10.0,-999.0,83,-99.99,,,-99.99,0.170000,,2013-03-04 11:00:00,
2013-03-04 06:52:00,21.0,16.0,29.92,West,280,10.0,-999.0,83,-99.99,,,-99.99,0.170000,,2013-03-04 11:52:00,
2013-03-04 07:00:00,21.0,17.0,29.93,WNW,284,9.0,-999.0,82,-99.99,,,-99.99,2.210000,,2013-03-04 12:00:00,
2013-03-04 07:53:00,21.0,17.0,29.93,WNW,284,9.0,-999.0,82,-99.99,,,-99.99,2.210000,,2013-03-04 12:53:00,
2013-03-04 08:00:00,21.0,16.0,29.94,WNW,285,11.0,-999.0,79,-99.99,,,-99.99,48.849998,,2013-03-04 13:00:00,
2013-03-04 08:52:00,21.0,16.0,29.94,WNW,285,11.0,-999.0,79,-99.99,,,-99.99,48.849998,,2013-03-04 13:52:00,
2013-03-04 09:00:00,22.0,16.0,29.93,West,281,12.0,-999.0,76,-99.99,,,-99.99,191.899994,,2013-03-04 14:00:00,
2013-03-04 09:52:00,22.0,16.0,29.93,West,281,12.0,-999.0,76,-99.99,,,-99.99,191.899994,,2013-03-04 14:52:00,
2013-03-04 10:00:00,23.0,17.0,29.94,West,281,12.0,-999.0,76,-99.99,,,-99.99,303.600006,,2013-03-04 15:00:00,
2013-03-04 10:52:00,23.0,17.0,29.94,West,281,12.0,-999.0,76,-99.99,,,-99.99,303.600006,,2013-03-04 15:52:00,
2013-03-04 11:00:00,24.0,17.0,29.94,West,272,11.0,-999.0,74,-99.99,,,-99.99,313.700012,,2013-03-04 16:00:00,
2013-03-04 11:52:00,24.0,17.0,29.94,West,272,11.0,-999.0,74,-99.99,,,-99.99,313.700012,,2013-03-04 16:52:00,
2013-03-04 21:00:00,28.0,21.0,29.99,WNW,290,11.0,-999.0,75,-99.99,,,-99.99,0.060000,,2013-03-05 02:00:00,
2013-03-04 21:53:00,28.0,21.0,29.99,WNW,290,11.0,-999.0,75,-99.99,,,-99.99,0.060000,,2013-03-05 02:53:00,
2013-03-04 22:00:00,27.0,21.0,30.00,WNW,290,10.0,-999.0,76,-99.99,,,-99.99,0.070000,,2013-03-05 03:00:00,
2013-03-04 22:52:00,27.0,21.0,30.00,WNW,290,10.0,-999.0,76,-99.99,,,-99.99,0.070000,,2013-03-05 03:52:00,
2013-03-04 23:00:00,26.0,20.0,30.01,NW,305,10.0,-999.0,75,-99.99,,,-99.99,0.050000,,2013-03-05 04:00:00,
2013-03-04 23:52:00,26.0,20.0,30.01,NW,305,10.0,-999.0,75,-99.99,,,-99.99,0.050000,,2013-03-05 04:52:00,